sensor_id;sensor_type;location;lat;lon;timestamp;pressure;altitude;pressure_sealevel;temperature
39959;BMP280;25639;53.634;9.880;2023-02-01T00:00:21;150956.97;;;-5.72
39959;BMP280;25639;53.634;9.880;2023-02-01T00:02:47;150939.34;;;-5.80
39959;BMP280;25639;53.634;9.880;2023-02-01T00:05:12;150906.59;;;-5.93
39959;BMP280;25639;53.634;9.880;2023-02-01T00:07:37;150834.84;;;-6.22
39959;BMP280;25639;53.634;9.880;2023-02-01T00:10:03;150833.56;;;-6.23
39959;BMP280;25639;53.634;9.880;2023-02-01T00:12:29;150852.50;;;-6.15
39959;BMP280;25639;53.634;9.880;2023-02-01T00:14:55;150854.97;;;-6.14
39959;BMP280;25639;53.634;9.880;2023-02-01T00:17:20;150866.34;;;-6.09
39959;BMP280;25639;53.634;9.880;2023-02-01T00:19:45;150871.38;;;-6.07
39959;BMP280;25639;53.634;9.880;2023-02-01T00:22:10;150848.72;;;-6.17
39959;BMP280;25639;53.634;9.880;2023-02-01T00:24:35;150857.53;;;-6.13
39959;BMP280;25639;53.634;9.880;2023-02-01T00:27:01;150867.59;;;-6.09
39959;BMP280;25639;53.634;9.880;2023-02-01T00:29:26;150867.59;;;-6.09
39959;BMP280;25639;53.634;9.880;2023-02-01T00:31:51;150870.13;;;-6.08
39959;BMP280;25639;53.634;9.880;2023-02-01T00:34:17;150877.66;;;-6.05
39959;BMP280;25639;53.634;9.880;2023-02-01T00:36:43;150889.00;;;-6.00
39959;BMP280;25639;53.634;9.880;2023-02-01T00:39:09;150906.59;;;-5.93
39959;BMP280;25639;53.634;9.880;2023-02-01T00:41:36;150914.16;;;-5.90
39959;BMP280;25639;53.634;9.880;2023-02-01T00:44:02;150920.44;;;-5.87
39959;BMP280;25639;53.634;9.880;2023-02-01T00:46:27;150921.69;;;-5.87
39959;BMP280;25639;53.634;9.880;2023-02-01T00:48:53;150935.56;;;-5.81
39959;BMP280;25639;53.634;9.880;2023-02-01T00:51:19;150941.88;;;-5.79
39959;BMP280;25639;53.634;9.880;2023-02-01T00:53:45;150953.25;;;-5.74
39959;BMP280;25639;53.634;9.880;2023-02-01T00:56:10;150958.28;;;-5.72
39959;BMP280;25639;53.634;9.880;2023-02-01T00:58:36;150965.81;;;-5.69
39959;BMP280;25639;53.634;9.880;2023-02-01T01:03:30;150944.41;;;-5.78
39959;BMP280;25639;53.634;9.880;2023-02-01T01:05:58;150940.63;;;-5.79
39959;BMP280;25639;53.634;9.880;2023-02-01T01:08:23;150945.66;;;-5.77
39959;BMP280;25639;53.634;9.880;2023-02-01T01:10:48;150953.25;;;-5.74
39959;BMP280;25639;53.634;9.880;2023-02-01T01:13:14;150950.69;;;-5.75
39959;BMP280;25639;53.634;9.880;2023-02-01T01:15:39;150959.50;;;-5.71
39959;BMP280;25639;53.634;9.880;2023-02-01T01:18:05;150958.28;;;-5.72
39959;BMP280;25639;53.634;9.880;2023-02-01T01:20:31;150958.28;;;-5.72
39959;BMP280;25639;53.634;9.880;2023-02-01T01:22:56;150958.28;;;-5.72
39959;BMP280;25639;53.634;9.880;2023-02-01T01:25:21;150956.97;;;-5.72
39959;BMP280;25639;53.634;9.880;2023-02-01T01:27:47;150953.25;;;-5.74
39959;BMP280;25639;53.634;9.880;2023-02-01T01:30:12;150953.25;;;-5.74
39959;BMP280;25639;53.634;9.880;2023-02-01T01:32:37;150956.97;;;-5.72
39959;BMP280;25639;53.634;9.880;2023-02-01T01:35:03;150953.25;;;-5.74
39959;BMP280;25639;53.634;9.880;2023-02-01T01:37:28;150965.81;;;-5.69
39959;BMP280;25639;53.634;9.880;2023-02-01T01:39:53;150955.72;;;-5.73
39959;BMP280;25639;53.634;9.880;2023-02-01T01:42:20;150948.16;;;-5.76
39959;BMP280;25639;53.634;9.880;2023-02-01T01:47:31;150960.75;;;-5.71
39959;BMP280;25639;53.634;9.880;2023-02-01T01:49:59;150968.34;;;-5.68
39959;BMP280;25639;53.634;9.880;2023-02-01T01:52:24;150959.50;;;-5.71
39959;BMP280;25639;53.634;9.880;2023-02-01T01:54:51;150974.63;;;-5.65
39959;BMP280;25639;53.634;9.880;2023-02-01T01:57:19;150975.91;;;-5.65
39959;BMP280;25639;53.634;9.880;2023-02-01T01:59:50;150979.69;;;-5.63
39959;BMP280;25639;53.634;9.880;2023-02-01T02:02:18;150958.28;;;-5.72
39959;BMP280;25639;53.634;9.880;2023-02-01T02:04:43;150970.88;;;-5.67
39959;BMP280;25639;53.634;9.880;2023-02-01T02:07:10;150978.41;;;-5.64
39959;BMP280;25639;53.634;9.880;2023-02-01T02:09:36;150970.88;;;-5.67
39959;BMP280;25639;53.634;9.880;2023-02-01T02:12:01;150964.56;;;-5.69
39959;BMP280;25639;53.634;9.880;2023-02-01T02:14:27;150969.59;;;-5.67
39959;BMP280;25639;53.634;9.880;2023-02-01T02:17:02;150968.34;;;-5.68
39959;BMP280;25639;53.634;9.880;2023-02-01T02:19:38;150988.53;;;-5.60
39959;BMP280;25639;53.634;9.880;2023-02-01T02:28:05;151003.63;;;-5.53
39959;BMP280;25639;53.634;9.880;2023-02-01T02:43:24;150974.63;;;-5.65
39959;BMP280;25639;53.634;9.880;2023-02-01T02:46:21;150983.44;;;-5.62
39959;BMP280;25639;53.634;9.880;2023-02-01T02:54:29;150955.72;;;-5.73
39959;BMP280;25639;53.634;9.880;2023-02-01T02:57:13;150946.91;;;-5.77
39959;BMP280;25639;53.634;9.880;2023-02-01T02:59:58;150951.94;;;-5.75
39959;BMP280;25639;53.634;9.880;2023-02-01T03:02:44;150951.94;;;-5.75
39959;BMP280;25639;53.634;9.880;2023-02-01T03:05:32;150921.69;;;-5.87
39959;BMP280;25639;53.634;9.880;2023-02-01T03:08:14;150929.28;;;-5.84
39959;BMP280;25639;53.634;9.880;2023-02-01T03:10:47;150919.22;;;-5.88
39959;BMP280;25639;53.634;9.880;2023-02-01T03:13:19;150924.25;;;-5.86
39959;BMP280;25639;53.634;9.880;2023-02-01T03:16:06;150931.81;;;-5.83
39959;BMP280;25639;53.634;9.880;2023-02-01T03:18:33;150910.38;;;-5.91
39959;BMP280;25639;53.634;9.880;2023-02-01T03:21:01;150929.28;;;-5.84
39959;BMP280;25639;53.634;9.880;2023-02-01T03:23:30;150917.91;;;-5.88
39959;BMP280;25639;53.634;9.880;2023-02-01T03:25:57;150911.63;;;-5.91
39959;BMP280;25639;53.634;9.880;2023-02-01T03:28:23;150905.34;;;-5.94
39959;BMP280;25639;53.634;9.880;2023-02-01T03:30:50;150882.69;;;-6.03
39959;BMP280;25639;53.634;9.880;2023-02-01T03:33:17;150870.13;;;-6.08
39959;BMP280;25639;53.634;9.880;2023-02-01T03:40:37;150843.66;;;-6.19
39959;BMP280;25639;53.634;9.880;2023-02-01T03:43:04;150849.94;;;-6.16
39959;BMP280;25639;53.634;9.880;2023-02-01T03:45:37;150842.38;;;-6.19
39959;BMP280;25639;53.634;9.880;2023-02-01T03:48:05;150856.22;;;-6.14
39959;BMP280;25639;53.634;9.880;2023-02-01T03:50:31;150854.97;;;-6.14
39959;BMP280;25639;53.634;9.880;2023-02-01T03:53:05;150854.97;;;-6.14
39959;BMP280;25639;53.634;9.880;2023-02-01T03:55:32;150860.00;;;-6.12
39959;BMP280;25639;53.634;9.880;2023-02-01T03:58:13;150875.16;;;-6.06
39959;BMP280;25639;53.634;9.880;2023-02-01T04:00:40;150854.97;;;-6.14
39959;BMP280;25639;53.634;9.880;2023-02-01T04:03:06;150860.00;;;-6.12
39959;BMP280;25639;53.634;9.880;2023-02-01T04:05:32;150872.63;;;-6.07
39959;BMP280;25639;53.634;9.880;2023-02-01T04:07:57;150868.84;;;-6.08
39959;BMP280;25639;53.634;9.880;2023-02-01T04:10:23;150871.38;;;-6.07
39959;BMP280;25639;53.634;9.880;2023-02-01T04:12:48;150867.59;;;-6.09
39959;BMP280;25639;53.634;9.880;2023-02-01T04:15:13;150865.03;;;-6.10
39959;BMP280;25639;53.634;9.880;2023-02-01T04:17:39;150870.13;;;-6.08
39959;BMP280;25639;53.634;9.880;2023-02-01T04:20:04;150875.16;;;-6.06
39959;BMP280;25639;53.634;9.880;2023-02-01T04:22:29;150868.84;;;-6.08
39959;BMP280;25639;53.634;9.880;2023-02-01T04:24:55;150865.03;;;-6.10
39959;BMP280;25639;53.634;9.880;2023-02-01T04:27:21;150849.94;;;-6.16
39959;BMP280;25639;53.634;9.880;2023-02-01T04:29:47;150842.38;;;-6.19
39959;BMP280;25639;53.634;9.880;2023-02-01T04:32:14;150841.13;;;-6.20
39959;BMP280;25639;53.634;9.880;2023-02-01T04:34:40;150831.06;;;-6.24
39959;BMP280;25639;53.634;9.880;2023-02-01T04:37:06;150815.94;;;-6.30
39959;BMP280;25639;53.634;9.880;2023-02-01T04:39:32;150807.13;;;-6.34
39959;BMP280;25639;53.634;9.880;2023-02-01T04:41:57;150823.50;;;-6.27
39959;BMP280;25639;53.634;9.880;2023-02-01T04:44:22;150803.31;;;-6.35
39959;BMP280;25639;53.634;9.880;2023-02-01T04:46:47;150808.34;;;-6.33
39959;BMP280;25639;53.634;9.880;2023-02-01T04:49:13;150799.53;;;-6.37
39959;BMP280;25639;53.634;9.880;2023-02-01T04:51:39;150794.50;;;-6.39
39959;BMP280;25639;53.634;9.880;2023-02-01T04:54:04;150781.91;;;-6.44
39959;BMP280;25639;53.634;9.880;2023-02-01T04:56:30;150781.91;;;-6.44
39959;BMP280;25639;53.634;9.880;2023-02-01T04:58:55;150766.81;;;-6.50
39959;BMP280;25639;53.634;9.880;2023-02-01T05:01:21;150756.75;;;-6.54
39959;BMP280;25639;53.634;9.880;2023-02-01T05:03:46;150741.63;;;-6.60
39959;BMP280;25639;53.634;9.880;2023-02-01T05:06:11;150741.63;;;-6.60
39959;BMP280;25639;53.634;9.880;2023-02-01T05:08:37;150729.03;;;-6.65
39959;BMP280;25639;53.634;9.880;2023-02-01T05:11:02;150695.06;;;-6.79
39959;BMP280;25639;53.634;9.880;2023-02-01T05:13:28;150681.16;;;-6.85
39959;BMP280;25639;53.634;9.880;2023-02-01T05:16:12;150684.97;;;-6.83
39959;BMP280;25639;53.634;9.880;2023-02-01T05:18:37;150672.38;;;-6.88
39959;BMP280;25639;53.634;9.880;2023-02-01T05:21:03;150640.91;;;-7.01
39959;BMP280;25639;53.634;9.880;2023-02-01T05:23:28;150617.00;;;-7.11
39959;BMP280;25639;53.634;9.880;2023-02-01T05:25:57;150604.41;;;-7.16
39959;BMP280;25639;53.634;9.880;2023-02-01T05:28:22;150560.38;;;-7.34
39959;BMP280;25639;53.634;9.880;2023-02-01T05:30:48;150566.63;;;-7.32
39959;BMP280;25639;53.634;9.880;2023-02-01T05:33:13;150584.25;;;-7.24
39959;BMP280;25639;53.634;9.880;2023-02-01T05:35:38;150560.38;;;-7.34
39959;BMP280;25639;53.634;9.880;2023-02-01T05:38:03;150567.94;;;-7.31
39959;BMP280;25639;53.634;9.880;2023-02-01T05:40:28;150545.22;;;-7.40
39959;BMP280;25639;53.634;9.880;2023-02-01T05:42:53;150511.28;;;-7.54
39959;BMP280;25639;53.634;9.880;2023-02-01T05:45:19;150507.50;;;-7.56
39959;BMP280;25639;53.634;9.880;2023-02-01T05:47:44;150497.47;;;-7.60
39959;BMP280;25639;53.634;9.880;2023-02-01T05:50:09;150510.00;;;-7.55
39959;BMP280;25639;53.634;9.880;2023-02-01T05:52:34;150487.38;;;-7.64
39959;BMP280;25639;53.634;9.880;2023-02-01T05:54:59;150471.03;;;-7.71
39959;BMP280;25639;53.634;9.880;2023-02-01T05:57:25;150474.78;;;-7.69
39959;BMP280;25639;53.634;9.880;2023-02-01T05:59:50;150448.34;;;-7.80
39959;BMP280;25639;53.634;9.880;2023-02-01T06:02:15;150439.56;;;-7.83
39959;BMP280;25639;53.634;9.880;2023-02-01T06:04:40;150465.97;;;-7.73
39959;BMP280;25639;53.634;9.880;2023-02-01T06:07:06;150465.97;;;-7.73
39959;BMP280;25639;53.634;9.880;2023-02-01T06:09:32;150457.16;;;-7.76
39959;BMP280;25639;53.634;9.880;2023-02-01T06:11:57;150462.22;;;-7.74
39959;BMP280;25639;53.634;9.880;2023-02-01T06:14:23;150479.84;;;-7.67
39959;BMP280;25639;53.634;9.880;2023-02-01T06:16:49;150488.66;;;-7.63
39959;BMP280;25639;53.634;9.880;2023-02-01T06:19:14;150487.38;;;-7.64
39959;BMP280;25639;53.634;9.880;2023-02-01T06:21:39;150478.56;;;-7.68
39959;BMP280;25639;53.634;9.880;2023-02-01T06:24:05;150493.69;;;-7.61
39959;BMP280;25639;53.634;9.880;2023-02-01T06:26:31;150494.91;;;-7.61
39959;BMP280;25639;53.634;9.880;2023-02-01T06:28:56;150506.25;;;-7.56
39959;BMP280;25639;53.634;9.880;2023-02-01T06:31:21;150506.25;;;-7.56
39959;BMP280;25639;53.634;9.880;2023-02-01T06:33:46;150513.78;;;-7.53
39959;BMP280;25639;53.634;9.880;2023-02-01T06:36:13;150536.41;;;-7.44
39959;BMP280;25639;53.634;9.880;2023-02-01T06:38:40;150550.31;;;-7.38
39959;BMP280;25639;53.634;9.880;2023-02-01T06:41:05;150569.16;;;-7.31
39959;BMP280;25639;53.634;9.880;2023-02-01T06:43:31;150569.16;;;-7.31
39959;BMP280;25639;53.634;9.880;2023-02-01T06:46:08;150590.56;;;-7.22
39959;BMP280;25639;53.634;9.880;2023-02-01T06:48:34;150584.25;;;-7.24
39959;BMP280;25639;53.634;9.880;2023-02-01T06:50:59;150603.16;;;-7.17
39959;BMP280;25639;53.634;9.880;2023-02-01T06:53:25;150605.66;;;-7.16
39959;BMP280;25639;53.634;9.880;2023-02-01T06:55:51;150614.47;;;-7.12
39959;BMP280;25639;53.634;9.880;2023-02-01T06:58:16;150622.03;;;-7.09
39959;BMP280;25639;53.634;9.880;2023-02-01T07:00:41;150629.59;;;-7.06
39959;BMP280;25639;53.634;9.880;2023-02-01T07:03:06;150630.84;;;-7.05
39959;BMP280;25639;53.634;9.880;2023-02-01T07:05:31;150634.63;;;-7.04
39959;BMP280;25639;53.634;9.880;2023-02-01T07:07:57;150647.22;;;-6.99
39959;BMP280;25639;53.634;9.880;2023-02-01T07:10:22;150651.00;;;-6.97
39959;BMP280;25639;53.634;9.880;2023-02-01T07:12:47;150657.28;;;-6.95
39959;BMP280;25639;53.634;9.880;2023-02-01T07:15:12;150662.31;;;-6.93
39959;BMP280;25639;53.634;9.880;2023-02-01T07:17:37;150668.63;;;-6.90
39959;BMP280;25639;53.634;9.880;2023-02-01T07:20:03;150696.31;;;-6.79
39959;BMP280;25639;53.634;9.880;2023-02-01T07:22:28;150695.06;;;-6.79
39959;BMP280;25639;53.634;9.880;2023-02-01T07:24:54;150706.38;;;-6.75
39959;BMP280;25639;53.634;9.880;2023-02-01T07:27:19;150721.50;;;-6.68
39959;BMP280;25639;53.634;9.880;2023-02-01T07:29:45;150742.91;;;-6.60
39959;BMP280;25639;53.634;9.880;2023-02-01T07:32:10;150734.09;;;-6.63
39959;BMP280;25639;53.634;9.880;2023-02-01T07:34:35;150677.44;;;-6.86
39959;BMP280;25639;53.634;9.880;2023-02-01T07:37:00;150677.44;;;-6.86
39959;BMP280;25639;53.634;9.880;2023-02-01T07:39:25;150690.03;;;-6.81
39959;BMP280;25639;53.634;9.880;2023-02-01T07:41:53;150718.97;;;-6.69
39959;BMP280;25639;53.634;9.880;2023-02-01T07:44:18;150739.13;;;-6.61
39959;BMP280;25639;53.634;9.880;2023-02-01T07:46:47;150760.53;;;-6.53
39959;BMP280;25639;53.634;9.880;2023-02-01T07:49:12;150781.91;;;-6.44
39959;BMP280;25639;53.634;9.880;2023-02-01T07:51:38;150807.13;;;-6.34
39959;BMP280;25639;53.634;9.880;2023-02-01T07:54:03;150819.72;;;-6.28
39959;BMP280;25639;53.634;9.880;2023-02-01T07:56:29;150833.56;;;-6.23
39959;BMP280;25639;53.634;9.880;2023-02-01T07:58:54;150842.38;;;-6.19
39959;BMP280;25639;53.634;9.880;2023-02-01T08:01:22;150856.22;;;-6.14
39959;BMP280;25639;53.634;9.880;2023-02-01T08:03:56;150857.53;;;-6.13
39959;BMP280;25639;53.634;9.880;2023-02-01T08:06:22;150861.31;;;-6.11
39959;BMP280;25639;53.634;9.880;2023-02-01T08:08:48;150862.56;;;-6.11
39959;BMP280;25639;53.634;9.880;2023-02-01T08:11:13;150865.03;;;-6.10
39959;BMP280;25639;53.634;9.880;2023-02-01T08:13:39;150885.22;;;-6.02
39959;BMP280;25639;53.634;9.880;2023-02-01T08:16:05;150875.16;;;-6.06
39959;BMP280;25639;53.634;9.880;2023-02-01T08:18:31;150901.56;;;-5.95
39959;BMP280;25639;53.634;9.880;2023-02-01T08:20:56;150919.22;;;-5.88
39959;BMP280;25639;53.634;9.880;2023-02-01T08:23:22;150931.81;;;-5.83
39959;BMP280;25639;53.634;9.880;2023-02-01T08:25:47;150973.38;;;-5.66
39959;BMP280;25639;53.634;9.880;2023-02-01T08:28:13;150983.44;;;-5.62
39959;BMP280;25639;53.634;9.880;2023-02-01T08:30:39;151006.16;;;-5.52
39959;BMP280;25639;53.634;9.880;2023-02-01T08:33:04;150956.97;;;-5.72
39959;BMP280;25639;53.634;9.880;2023-02-01T08:35:31;150928.03;;;-5.84
39959;BMP280;25639;53.634;9.880;2023-02-01T08:37:57;150909.09;;;-5.92
39959;BMP280;25639;53.634;9.880;2023-02-01T08:40:22;150902.81;;;-5.95
39959;BMP280;25639;53.634;9.880;2023-02-01T08:42:47;150863.81;;;-6.10
39959;BMP280;25639;53.634;9.880;2023-02-01T08:45:16;150853.72;;;-6.15
39959;BMP280;25639;53.634;9.880;2023-02-01T08:47:41;150839.88;;;-6.20
39959;BMP280;25639;53.634;9.880;2023-02-01T08:50:06;150857.53;;;-6.13
39959;BMP280;25639;53.634;9.880;2023-02-01T08:52:32;150833.56;;;-6.23
39959;BMP280;25639;53.634;9.880;2023-02-01T08:54:57;150844.91;;;-6.18
39959;BMP280;25639;53.634;9.880;2023-02-01T08:57:22;150863.81;;;-6.10
39959;BMP280;25639;53.634;9.880;2023-02-01T08:59:48;150889.00;;;-6.00
39959;BMP280;25639;53.634;9.880;2023-02-01T09:02:13;150917.91;;;-5.88
39959;BMP280;25639;53.634;9.880;2023-02-01T09:04:38;150959.50;;;-5.71
39959;BMP280;25639;53.634;9.880;2023-02-01T09:07:04;150994.81;;;-5.57
39959;BMP280;25639;53.634;9.880;2023-02-01T09:09:29;151006.16;;;-5.52
39959;BMP280;25639;53.634;9.880;2023-02-01T09:11:54;150996.06;;;-5.57
39959;BMP280;25639;53.634;9.880;2023-02-01T09:14:19;151003.63;;;-5.53
39959;BMP280;25639;53.634;9.880;2023-02-01T09:16:44;151026.31;;;-5.44
39959;BMP280;25639;53.634;9.880;2023-02-01T09:19:10;151089.38;;;-5.19
39959;BMP280;25639;53.634;9.880;2023-02-01T09:21:35;151139.78;;;-4.98
39959;BMP280;25639;53.634;9.880;2023-02-01T09:24:00;151134.72;;;-5.00
39959;BMP280;25639;53.634;9.880;2023-02-01T09:26:25;151120.88;;;-5.06
39959;BMP280;25639;53.634;9.880;2023-02-01T09:28:51;151114.53;;;-5.08
39959;BMP280;25639;53.634;9.880;2023-02-01T09:31:16;151117.09;;;-5.07
39959;BMP280;25639;53.634;9.880;2023-02-01T09:33:41;151133.50;;;-5.01
39959;BMP280;25639;53.634;9.880;2023-02-01T09:36:06;151138.53;;;-4.99
39959;BMP280;25639;53.634;9.880;2023-02-01T09:38:32;151128.41;;;-5.03
39959;BMP280;25639;53.634;9.880;2023-02-01T09:40:57;151130.94;;;-5.02
39959;BMP280;25639;53.634;9.880;2023-02-01T09:45:51;151141.03;;;-4.98
39959;BMP280;25639;53.634;9.880;2023-02-01T09:48:31;151137.22;;;-4.99
39959;BMP280;25639;53.634;9.880;2023-02-01T09:50:59;151142.31;;;-4.97
39959;BMP280;25639;53.634;9.880;2023-02-01T09:53:35;151148.59;;;-4.94
39959;BMP280;25639;53.634;9.880;2023-02-01T09:56:05;151157.44;;;-4.91
39959;BMP280;25639;53.634;9.880;2023-02-01T10:00:57;151243.22;;;-4.56
39959;BMP280;25639;53.634;9.880;2023-02-01T10:03:27;151233.09;;;-4.60
39959;BMP280;25639;53.634;9.880;2023-02-01T10:10:45;151215.44;;;-4.67
39959;BMP280;25639;53.634;9.880;2023-02-01T10:21:31;151225.56;;;-4.63
39959;BMP280;25639;53.634;9.880;2023-02-01T10:26:12;151197.78;;;-4.74
39959;BMP280;25639;53.634;9.880;2023-02-01T10:28:42;151210.38;;;-4.69
39959;BMP280;25639;53.634;9.880;2023-02-01T10:31:09;151191.47;;;-4.77
39959;BMP280;25639;53.634;9.880;2023-02-01T10:33:44;151188.94;;;-4.78
39959;BMP280;25639;53.634;9.880;2023-02-01T10:38:57;151128.41;;;-5.03
39959;BMP280;25639;53.634;9.880;2023-02-01T10:41:22;151117.09;;;-5.07
39959;BMP280;25639;53.634;9.880;2023-02-01T10:43:51;151113.28;;;-5.09
39959;BMP280;25639;53.634;9.880;2023-02-01T10:46:18;151098.19;;;-5.15
39959;BMP280;25639;53.634;9.880;2023-02-01T10:48:43;151076.75;;;-5.24
39959;BMP280;25639;53.634;9.880;2023-02-01T10:51:13;151069.16;;;-5.27
39959;BMP280;25639;53.634;9.880;2023-02-01T10:56:08;151090.63;;;-5.18
39959;BMP280;25639;53.634;9.880;2023-02-01T10:58:34;151011.19;;;-5.50
39959;BMP280;25639;53.634;9.880;2023-02-01T11:01:06;150876.41;;;-6.05
39959;BMP280;25639;53.634;9.880;2023-02-01T11:03:39;150729.03;;;-6.65
39959;BMP280;25639;53.634;9.880;2023-02-01T11:08:45;150815.94;;;-6.30
39959;BMP280;25639;53.634;9.880;2023-02-01T11:11:11;150803.31;;;-6.35
39959;BMP280;25639;53.634;9.880;2023-02-01T11:13:37;150812.13;;;-6.32
39959;BMP280;25639;53.634;9.880;2023-02-01T11:16:03;150842.38;;;-6.19
39959;BMP280;25639;53.634;9.880;2023-02-01T11:18:30;150868.84;;;-6.08
39959;BMP280;25639;53.634;9.880;2023-02-01T11:20:55;150910.38;;;-5.91
39959;BMP280;25639;53.634;9.880;2023-02-01T11:23:22;150945.66;;;-5.77
39959;BMP280;25639;53.634;9.880;2023-02-01T11:26:01;150984.75;;;-5.61
39959;BMP280;25639;53.634;9.880;2023-02-01T11:28:27;151018.72;;;-5.47
39959;BMP280;25639;53.634;9.880;2023-02-01T11:30:55;151032.63;;;-5.42
39959;BMP280;25639;53.634;9.880;2023-02-01T11:33:24;151051.53;;;-5.34
39959;BMP280;25639;53.634;9.880;2023-02-01T11:35:52;151055.31;;;-5.32
39959;BMP280;25639;53.634;9.880;2023-02-01T11:38:22;151064.13;;;-5.29
39959;BMP280;25639;53.634;9.880;2023-02-01T11:40:51;151091.84;;;-5.18
39959;BMP280;25639;53.634;9.880;2023-02-01T11:43:23;151084.28;;;-5.21
39959;BMP280;25639;53.634;9.880;2023-02-01T11:46:01;151080.53;;;-5.22
39959;BMP280;25639;53.634;9.880;2023-02-01T11:48:28;151085.56;;;-5.20
39959;BMP280;25639;53.634;9.880;2023-02-01T11:56:28;151046.50;;;-5.36
39959;BMP280;25639;53.634;9.880;2023-02-01T12:01:41;151036.38;;;-5.40
39959;BMP280;25639;53.634;9.880;2023-02-01T12:04:16;151045.19;;;-5.37
39959;BMP280;25639;53.634;9.880;2023-02-01T12:06:56;151031.34;;;-5.42
39959;BMP280;25639;53.634;9.880;2023-02-01T12:12:05;151018.72;;;-5.47
39959;BMP280;25639;53.634;9.880;2023-02-01T12:14:48;151016.22;;;-5.48
39959;BMP280;25639;53.634;9.880;2023-02-01T12:22:33;150941.88;;;-5.79
39959;BMP280;25639;53.634;9.880;2023-02-01T12:27:42;150919.22;;;-5.88
39959;BMP280;25639;53.634;9.880;2023-02-01T12:35:14;150809.66;;;-6.33
39959;BMP280;25639;53.634;9.880;2023-02-01T12:43:03;150761.78;;;-6.52
39959;BMP280;25639;53.634;9.880;2023-02-01T12:45:34;150760.53;;;-6.53
39959;BMP280;25639;53.634;9.880;2023-02-01T12:50:54;150745.41;;;-6.59
39959;BMP280;25639;53.634;9.880;2023-02-01T12:59:10;150759.25;;;-6.53
39959;BMP280;25639;53.634;9.880;2023-02-01T13:01:41;150769.34;;;-6.49
39959;BMP280;25639;53.634;9.880;2023-02-01T13:04:11;150759.25;;;-6.53
39959;BMP280;25639;53.634;9.880;2023-02-01T13:06:39;150746.66;;;-6.58
39959;BMP280;25639;53.634;9.880;2023-02-01T13:11:51;150794.50;;;-6.39
39959;BMP280;25639;53.634;9.880;2023-02-01T13:14:27;150819.72;;;-6.28
39959;BMP280;25639;53.634;9.880;2023-02-01T13:17:10;150891.50;;;-5.99
39959;BMP280;25639;53.634;9.880;2023-02-01T13:19:45;150896.59;;;-5.97
39959;BMP280;25639;53.634;9.880;2023-02-01T13:22:13;150930.53;;;-5.83
39959;BMP280;25639;53.634;9.880;2023-02-01T13:24:45;150956.97;;;-5.72
39959;BMP280;25639;53.634;9.880;2023-02-01T13:27:11;150959.50;;;-5.71
39959;BMP280;25639;53.634;9.880;2023-02-01T13:29:37;150940.63;;;-5.79
39959;BMP280;25639;53.634;9.880;2023-02-01T13:32:11;150984.75;;;-5.61
39959;BMP280;25639;53.634;9.880;2023-02-01T13:44:40;151107.00;;;-5.11
39959;BMP280;25639;53.634;9.880;2023-02-01T13:47:13;151067.94;;;-5.27
39959;BMP280;25639;53.634;9.880;2023-02-01T13:49:41;151054.03;;;-5.33
39959;BMP280;25639;53.634;9.880;2023-02-01T13:52:17;151023.81;;;-5.45
39959;BMP280;25639;53.634;9.880;2023-02-01T13:54:46;150968.34;;;-5.68
39959;BMP280;25639;53.634;9.880;2023-02-01T14:00:03;150910.38;;;-5.91
39959;BMP280;25639;53.634;9.880;2023-02-01T14:05:08;150880.19;;;-6.04
39959;BMP280;25639;53.634;9.880;2023-02-01T14:07:34;150944.41;;;-5.78
39959;BMP280;25639;53.634;9.880;2023-02-01T14:10:42;151003.63;;;-5.53
39959;BMP280;25639;53.634;9.880;2023-02-01T14:12:46;150984.75;;;-5.61
39959;BMP280;25639;53.634;9.880;2023-02-01T14:17:42;150985.97;;;-5.61
39959;BMP280;25639;53.634;9.880;2023-02-01T14:20:36;151025.06;;;-5.45
39959;BMP280;25639;53.634;9.880;2023-02-01T14:23:00;151027.56;;;-5.44
39959;BMP280;25639;53.634;9.880;2023-02-01T14:25:25;150994.81;;;-5.57
39959;BMP280;25639;53.634;9.880;2023-02-01T14:27:56;150948.16;;;-5.76
39959;BMP280;25639;53.634;9.880;2023-02-01T14:30:22;150911.63;;;-5.91
39959;BMP280;25639;53.634;9.880;2023-02-01T14:32:48;150860.00;;;-6.12
39959;BMP280;25639;53.634;9.880;2023-02-01T14:35:20;150843.66;;;-6.19
39959;BMP280;25639;53.634;9.880;2023-02-01T14:37:50;150848.72;;;-6.17
39959;BMP280;25639;53.634;9.880;2023-02-01T14:40:19;150820.97;;;-6.28
39959;BMP280;25639;53.634;9.880;2023-02-01T14:42:46;150810.91;;;-6.32
39959;BMP280;25639;53.634;9.880;2023-02-01T14:50:41;150771.84;;;-6.48
39959;BMP280;25639;53.634;9.880;2023-02-01T14:58:13;150810.91;;;-6.32
39959;BMP280;25639;53.634;9.880;2023-02-01T15:01:27;150812.13;;;-6.32
39959;BMP280;25639;53.634;9.880;2023-02-01T15:04:38;150844.91;;;-6.18
39959;BMP280;25639;53.634;9.880;2023-02-01T15:09:36;150814.69;;;-6.30
39959;BMP280;25639;53.634;9.880;2023-02-01T15:14:38;150823.50;;;-6.27
39959;BMP280;25639;53.634;9.880;2023-02-01T15:19:53;150785.69;;;-6.42
39959;BMP280;25639;53.634;9.880;2023-02-01T15:22:18;150788.22;;;-6.41
39959;BMP280;25639;53.634;9.880;2023-02-01T15:24:51;150787.00;;;-6.42
39959;BMP280;25639;53.634;9.880;2023-02-01T15:27:16;150765.56;;;-6.50
39959;BMP280;25639;53.634;9.880;2023-02-01T15:29:42;150752.97;;;-6.56
39959;BMP280;25639;53.634;9.880;2023-02-01T15:32:14;150765.56;;;-6.50
39959;BMP280;25639;53.634;9.880;2023-02-01T15:34:52;150744.16;;;-6.59
39959;BMP280;25639;53.634;9.880;2023-02-01T15:37:20;150756.75;;;-6.54
39959;BMP280;25639;53.634;9.880;2023-02-01T15:42:32;150768.06;;;-6.49
39959;BMP280;25639;53.634;9.880;2023-02-01T15:44:58;150759.25;;;-6.53
39959;BMP280;25639;53.634;9.880;2023-02-01T15:47:24;150766.81;;;-6.50
39959;BMP280;25639;53.634;9.880;2023-02-01T15:49:53;150769.34;;;-6.49
39959;BMP280;25639;53.634;9.880;2023-02-01T15:54:49;150768.06;;;-6.49
39959;BMP280;25639;53.634;9.880;2023-02-01T15:57:22;150765.56;;;-6.50
39959;BMP280;25639;53.634;9.880;2023-02-01T15:59:55;150783.22;;;-6.43
39959;BMP280;25639;53.634;9.880;2023-02-01T16:04:52;150789.47;;;-6.41
39959;BMP280;25639;53.634;9.880;2023-02-01T16:07:26;150793.25;;;-6.39
39959;BMP280;25639;53.634;9.880;2023-02-01T16:09:53;150794.50;;;-6.39
39959;BMP280;25639;53.634;9.880;2023-02-01T16:15:22;150805.88;;;-6.34
39959;BMP280;25639;53.634;9.880;2023-02-01T16:17:47;150813.44;;;-6.31
39959;BMP280;25639;53.634;9.880;2023-02-01T16:20:12;150820.97;;;-6.28
39959;BMP280;25639;53.634;9.880;2023-02-01T16:22:38;150800.84;;;-6.36
39959;BMP280;25639;53.634;9.880;2023-02-01T16:25:03;150804.63;;;-6.35
39959;BMP280;25639;53.634;9.880;2023-02-01T16:27:28;150804.63;;;-6.35
39959;BMP280;25639;53.634;9.880;2023-02-01T16:29:53;150817.22;;;-6.29